Time;durP1;ratioP1;P1;durP2;ratioP2;P2;SDS_P1;SDS_P2;PMS_P1;PMS_P2;Temp;Humidity;BMP_temperature;BMP_pressure;BME280_temperature;BME280_humidity;BME280_pressure;Samples;Min_cycle;Max_cycle;Signal;HPM_P1;HPM_P2
2022/07/20 00:01:58;;;;;;;18.62;6.45;;;;;;;14.23;82.47;95244.78;1775786;80;20976;-56
2022/07/20 00:04:26;;;;;;;11.28;5.97;;;;;;;14.19;82.34;95234.48;1775690;80;21020;-56
2022/07/20 00:06:55;;;;;;;10.43;6.05;;;;;;;14.13;82.06;95239.03;1775906;80;21460;-55
2022/07/20 00:12:10;;;;;;;13.00;5.65;;;;;;;13.96;81.90;95237.78;1775931;80;21162;-56
2022/07/20 00:14:40;;;;;;;7.85;5.80;;;;;;;13.90;82.34;95243.73;1776134;80;20974;-56
2022/07/20 00:17:07;;;;;;;9.23;6.25;;;;;;;13.93;82.56;95233.14;1775798;80;21071;-56
2022/07/20 00:19:35;;;;;;;19.20;7.17;;;;;;;13.96;82.60;95243.31;1750265;80;20957;-56
2022/07/20 00:22:04;;;;;;;16.37;8.10;;;;;;;13.96;83.11;95233.63;1775826;80;21056;-55
2022/07/20 00:24:32;;;;;;;12.95;6.10;;;;;;;13.93;83.60;95238.67;1776067;80;21179;-55
2022/07/20 00:27:00;;;;;;;15.28;6.78;;;;;;;13.88;84.01;95239.28;1750732;80;20980;-56
2022/07/20 00:29:28;;;;;;;14.58;6.72;;;;;;;13.84;84.26;95235.89;1775882;80;21044;-56
2022/07/20 00:31:56;;;;;;;9.50;6.35;;;;;;;13.78;84.39;95234.95;1776136;80;20949;-58
2022/07/20 00:34:24;;;;;;;13.78;6.42;;;;;;;13.75;84.59;95224.78;1775982;80;20992;-55
2022/07/20 00:36:53;;;;;;;15.43;6.45;;;;;;;13.74;84.17;95230.16;1776338;80;21077;-56
2022/07/20 00:39:21;;;;;;;7.40;5.20;;;;;;;13.70;83.81;95226.16;1775886;80;21028;-56
2022/07/20 00:41:49;;;;;;;9.50;5.67;;;;;;;13.64;83.69;95224.45;1750242;80;21036;-56
2022/07/20 00:44:17;;;;;;;10.85;5.42;;;;;;;13.64;83.63;95224.45;1725842;80;21086;-56
2022/07/20 00:46:46;;;;;;;9.28;6.03;;;;;;;13.64;83.68;95220.30;1776101;80;20948;-56
2022/07/20 00:49:14;;;;;;;11.20;7.65;;;;;;;13.63;83.61;95222.91;1776169;80;21306;-56
2022/07/20 00:51:43;;;;;;;15.38;7.00;;;;;;;13.63;84.12;95220.89;1776295;80;21027;-56
2022/07/20 00:54:11;;;;;;;10.80;5.90;;;;;;;13.61;84.51;95221.22;1776061;80;20984;-55
2022/07/20 00:56:39;;;;;;;10.10;6.37;;;;;;;13.54;84.61;95228.38;1760876;80;21016;-56
2022/07/20 00:59:08;;;;;;;13.05;5.90;;;;;;;13.48;84.61;95219.91;1755274;81;20994;-55
2022/07/20 01:01:37;;;;;;;13.10;8.40;;;;;;;13.43;84.96;95214.98;1743908;82;21171;-56
2022/07/20 01:04:05;;;;;;;18.32;9.15;;;;;;;13.41;85.18;95218.81;1727865;81;20995;-56
2022/07/20 01:06:35;;;;;;;14.33;9.15;;;;;;;13.38;85.31;95216.17;1743849;82;20982;-55
2022/07/20 01:09:03;;;;;;;12.00;7.35;;;;;;;13.35;85.34;95215.11;1755323;81;21001;-57
2022/07/20 01:11:33;;;;;;;8.90;5.50;;;;;;;13.35;85.10;95217.09;1728106;81;20966;-57
2022/07/20 01:14:06;;;;;;;6.83;5.42;;;;;;;13.27;84.50;95213.06;1743680;82;21113;-56
2022/07/20 01:16:35;;;;;;;11.65;6.00;;;;;;;13.19;84.36;95218.69;1727981;81;21014;-61
2022/07/20 01:19:04;;;;;;;7.75;6.05;;;;;;;13.12;84.49;95214.82;1743888;82;21486;-57
2022/07/20 01:21:40;;;;;;;11.33;6.75;;;;;;;13.08;84.80;95205.27;1755086;81;21037;-58
2022/07/20 01:24:05;;;;;;;11.70;6.33;;;;;;;13.08;85.10;95208.03;1754844;81;20994;-56
2022/07/20 01:26:32;;;;;;;10.65;6.58;;;;;;;13.08;85.73;95208.66;1743746;82;22363;-56
2022/07/20 01:29:00;;;;;;;10.43;5.92;;;;;;;13.11;86.01;95207.76;1755614;81;21510;-56
2022/07/20 01:31:28;;;;;;;12.63;6.80;;;;;;;13.09;85.42;95212.97;1755426;81;21495;-57
2022/07/20 01:33:56;;;;;;;10.15;6.33;;;;;;;13.07;85.38;95208.51;1743572;82;21074;-57
2022/07/20 01:36:25;;;;;;;13.85;7.53;;;;;;;13.08;85.35;95209.42;1755399;81;21207;-56
2022/07/20 01:38:53;;;;;;;12.18;6.62;;;;;;;13.08;85.27;95208.66;1755703;81;21133;-56
2022/07/20 01:41:23;;;;;;;12.35;6.90;;;;;;;13.08;85.30;95208.03;1755339;81;20979;-57
2022/07/20 01:43:51;;;;;;;18.95;7.25;;;;;;;13.07;85.38;95211.27;1755546;81;21470;-56
2022/07/20 01:46:19;;;;;;;13.80;7.85;;;;;;;13.07;85.58;95201.60;1718564;82;21093;-56
2022/07/20 01:48:47;;;;;;;10.78;6.78;;;;;;;13.05;85.59;95204.05;1728178;81;21059;-57
2022/07/20 01:51:14;;;;;;;14.03;6.67;;;;;;;13.04;85.74;95201.13;1744269;82;21184;-56
2022/07/20 01:53:43;;;;;;;11.95;6.40;;;;;;;13.00;85.54;95208.16;1755155;81;21082;-56
2022/07/20 01:56:12;;;;;;;13.05;6.12;;;;;;;12.98;85.85;95207.05;1743613;82;20951;-56
2022/07/20 01:58:42;;;;;;;11.40;6.92;;;;;;;12.96;86.07;95210.88;1755193;81;21015;-55
2022/07/20 02:01:10;;;;;;;10.15;6.37;;;;;;;12.97;86.25;95211.04;1744052;82;21041;-56
2022/07/20 02:03:40;;;;;;;7.72;5.75;;;;;;;12.98;85.83;95206.45;1755314;81;21721;-56
2022/07/20 02:06:08;;;;;;;6.70;5.53;;;;;;;12.88;85.05;95202.68;1743495;82;21042;-55
2022/07/20 02:08:38;;;;;;;8.98;6.25;;;;;;;12.77;84.97;95204.45;1755513;81;21029;-56
2022/07/20 02:11:06;;;;;;;10.13;6.40;;;;;;;12.73;85.30;95206.55;1743384;82;20963;-56
2022/07/20 02:13:36;;;;;;;11.12;7.00;;;;;;;12.71;86.00;95209.61;1755204;81;20998;-58
2022/07/20 02:16:16;;;;;;;10.98;6.60;;;;;;;12.69;86.22;95211.44;1744018;82;21118;-56
2022/07/20 02:18:52;;;;;;;10.98;7.83;;;;;;;12.62;86.15;95210.91;1731124;81;20966;-55
2022/07/20 02:21:20;;;;;;;12.23;6.47;;;;;;;12.53;86.32;95212.23;1755961;81;20986;-55
2022/07/20 02:23:49;;;;;;;10.43;6.42;;;;;;;12.51;86.47;95213.30;1743443;82;20979;-55
2022/07/20 02:26:17;;;;;;;11.83;5.90;;;;;;;12.49;86.78;95217.09;1755565;81;21540;-56
2022/07/20 02:28:45;;;;;;;13.20;7.25;;;;;;;12.47;87.06;95217.39;1743821;82;21872;-56
2022/07/20 02:31:14;;;;;;;12.78;7.55;;;;;;;12.46;87.35;95223.51;1755517;81;20927;-56
2022/07/20 02:33:42;;;;;;;12.18;7.50;;;;;;;12.44;87.50;95210.77;1727880;81;20990;-56
2022/07/20 02:36:10;;;;;;;14.15;7.10;;;;;;;12.46;87.16;95215.85;1728077;81;20995;-58
2022/07/20 02:38:39;;;;;;;10.15;7.15;;;;;;;12.48;87.28;95213.41;1755393;81;21011;-57
2022/07/20 02:41:08;;;;;;;8.18;5.90;;;;;;;12.51;87.03;95214.68;1755540;81;21201;-55
2022/07/20 02:43:36;;;;;;;7.47;5.60;;;;;;;12.50;86.52;95215.90;1743527;82;20987;-55
2022/07/20 02:46:05;;;;;;;7.22;5.17;;;;;;;12.43;86.10;95216.13;1755356;81;20974;-55
2022/07/20 02:48:34;;;;;;;7.37;5.70;;;;;;;12.36;85.90;95210.87;1743612;82;20959;-55
2022/07/20 02:51:03;;;;;;;9.23;5.53;;;;;;;12.28;85.86;95210.94;1755466;81;20947;-56
2022/07/20 02:53:31;;;;;;;9.03;5.80;;;;;;;12.30;86.00;95222.91;1755289;81;21138;-57
2022/07/20 02:55:59;;;;;;;10.75;6.60;;;;;;;12.31;86.34;95221.10;1755820;80;21028;-56
2022/07/20 02:58:27;;;;;;;8.58;5.45;;;;;;;12.33;86.46;95225.56;1757493;80;21610;-57
2022/07/20 03:00:57;;;;;;;8.88;5.62;;;;;;;12.38;86.44;95220.06;1731830;81;20953;-57
2022/07/20 03:03:25;;;;;;;12.00;5.53;;;;;;;12.36;86.38;95223.88;1731929;81;21484;-56
2022/07/20 03:05:53;;;;;;;7.40;5.42;;;;;;;12.33;86.39;95219.26;1758507;80;21782;-56
2022/07/20 03:08:22;;;;;;;11.12;6.25;;;;;;;12.38;86.63;95220.84;1765905;81;20934;-56
2022/07/20 03:10:49;;;;;;;11.03;6.67;;;;;;;12.36;86.49;95216.38;1765897;81;21461;-55
2022/07/20 03:13:18;;;;;;;9.40;6.67;;;;;;;12.38;86.62;95225.58;1750317;81;20978;-56
2022/07/20 03:15:46;;;;;;;11.12;6.28;;;;;;;12.39;86.78;95225.73;1750645;81;21486;-56
2022/07/20 03:18:14;;;;;;;10.65;6.53;;;;;;;12.40;86.80;95225.90;1715955;80;21139;-56
2022/07/20 03:20:42;;;;;;;13.45;6.45;;;;;;;12.39;86.88;95226.52;1765749;80;20986;-55
2022/07/20 03:23:10;;;;;;;13.30;6.55;;;;;;;12.43;86.87;95224.41;1765565;81;21025;-59
2022/07/20 03:25:37;;;;;;;14.75;6.95;;;;;;;12.44;86.74;95216.91;1750795;81;21010;-56
2022/07/20 03:28:06;;;;;;;14.93;6.50;;;;;;;12.43;86.82;95219.52;1751031;81;21402;-56
2022/07/20 03:30:34;;;;;;;14.73;7.03;;;;;;;12.43;86.78;95222.27;1765997;81;21609;-57
2022/07/20 03:33:03;;;;;;;14.78;6.42;;;;;;;12.43;86.58;95223.66;1765901;80;21033;-56
2022/07/20 03:35:31;;;;;;;23.25;7.08;;;;;;;12.39;86.64;95223.77;1766117;80;21446;-57
2022/07/20 03:38:00;;;;;;;20.70;6.65;;;;;;;12.32;86.50;95225.40;1765896;80;21026;-56
2022/07/20 03:40:28;;;;;;;14.05;7.20;;;;;;;12.35;86.79;95222.34;1766007;80;21070;-57
2022/07/20 03:42:56;;;;;;;19.37;7.83;;;;;;;12.38;87.08;95227.75;1765897;80;21279;-55
2022/07/20 03:45:24;;;;;;;15.68;7.58;;;;;;;12.37;87.05;95228.96;1765696;81;21001;-55
2022/07/20 03:47:52;;;;;;;16.40;6.92;;;;;;;12.39;87.07;95227.91;1765559;81;21493;-55
2022/07/20 03:50:20;;;;;;;17.37;7.12;;;;;;;12.45;87.15;95230.88;1750795;81;20994;-56
2022/07/20 03:52:49;;;;;;;16.57;7.40;;;;;;;12.50;87.10;95231.08;1766160;81;21533;-57
2022/07/20 03:55:19;;;;;;;12.78;7.03;;;;;;;12.68;87.33;95233.98;1766252;81;21371;-57
2022/07/20 03:57:48;;;;;;;11.90;5.78;;;;;;;12.81;87.34;95232.70;1750873;80;21513;-56
2022/07/20 04:00:18;;;;;;;11.73;6.12;;;;;;;12.94;87.28;95236.80;1765723;81;20976;-56
2022/07/20 04:02:47;;;;;;;12.30;7.40;;;;;;;13.05;86.60;95230.29;1765792;81;21505;-56
2022/07/20 04:05:16;;;;;;;11.28;6.62;;;;;;;13.11;86.09;95236.77;1765136;81;21002;-59
2022/07/20 04:07:44;;;;;;;17.85;7.42;;;;;;;13.19;85.90;95228.36;1731550;81;21320;-56
2022/07/20 04:10:12;;;;;;;15.63;7.50;;;;;;;13.25;85.41;95228.70;1755138;81;20983;-58
2022/07/20 04:12:41;;;;;;;13.90;6.80;;;;;;;13.41;85.49;95228.48;1755045;81;21053;-58
2022/07/20 04:15:09;;;;;;;23.42;6.75;;;;;;;13.64;85.02;95232.74;1755230;81;20990;-57
2022/07/20 04:17:42;;;;;;;10.75;5.92;;;;;;;13.79;84.05;95235.86;1755261;81;21014;-56
2022/07/20 04:20:12;;;;;;;8.83;6.25;;;;;;;13.87;83.54;95229.44;1755142;81;20982;-56
2022/07/20 04:22:41;;;;;;;10.32;6.35;;;;;;;13.92;83.23;95231.59;1729354;81;21002;-59
2022/07/20 04:25:10;;;;;;;10.48;6.72;;;;;;;13.97;82.98;95232.41;1755271;81;21034;-57
2022/07/20 04:27:38;;;;;;;9.90;6.35;;;;;;;14.04;82.88;95233.48;1729792;81;21446;-59
2022/07/20 04:30:09;;;;;;;10.32;6.72;;;;;;;14.13;82.67;95232.89;1730105;81;21566;-58
2022/07/20 04:32:38;;;;;;;10.48;5.67;;;;;;;14.26;82.26;95234.17;1754850;81;21771;-54
2022/07/20 04:35:08;;;;;;;12.33;6.05;;;;;;;14.35;81.94;95231.44;1755604;81;20939;-57
2022/07/20 04:37:37;;;;;;;7.08;5.90;;;;;;;14.42;81.60;95231.13;1755112;81;21506;-57
2022/07/20 04:40:07;;;;;;;7.08;5.55;;;;;;;14.43;81.34;95228.66;1755461;81;20958;-59
2022/07/20 04:42:36;;;;;;;5.92;4.62;;;;;;;14.55;81.37;95238.05;1755190;81;20930;-55
2022/07/20 04:45:06;;;;;;;6.05;4.90;;;;;;;14.84;80.87;95233.59;1755560;81;21130;-56
2022/07/20 04:47:33;;;;;;;9.98;5.15;;;;;;;15.17;80.17;95235.12;1754933;81;21057;-56
2022/07/20 04:50:01;;;;;;;12.53;4.75;;;;;;;15.46;78.98;95228.44;1754733;81;21013;-56
2022/07/20 04:52:30;;;;;;;7.17;5.08;;;;;;;15.67;77.93;95228.23;1730198;81;21017;-57
2022/07/20 04:54:57;;;;;;;7.70;5.30;;;;;;;15.76;76.96;95225.41;1755266;81;21525;-59
2022/07/20 04:57:26;;;;;;;8.95;4.95;;;;;;;15.73;76.59;95228.37;1706493;82;21793;-60
2022/07/20 04:59:55;;;;;;;7.17;4.97;;;;;;;15.71;76.30;95228.82;1700562;83;21043;-58
2022/07/20 05:02:25;;;;;;;8.40;5.00;;;;;;;15.70;76.08;95226.53;1724764;83;21020;-59
2022/07/20 05:04:53;;;;;;;19.67;6.28;;;;;;;15.72;76.27;95223.42;1725110;83;20962;-58
2022/07/20 05:07:21;;;;;;;8.48;5.55;;;;;;;15.77;76.34;95227.57;1697396;83;20990;-59
2022/07/20 05:09:49;;;;;;;14.75;5.62;;;;;;;15.81;76.13;95228.95;1721515;83;21288;-58
2022/07/20 05:12:17;;;;;;;8.43;5.47;;;;;;;15.85;75.59;95223.99;1721458;81;21060;-59
2022/07/20 05:14:46;;;;;;;10.63;5.78;;;;;;;15.88;75.54;95224.44;1721245;81;20954;-60
2022/07/20 05:17:14;;;;;;;15.25;5.03;;;;;;;15.91;75.38;95218.58;1721398;83;21061;-59
2022/07/20 05:19:43;;;;;;;15.63;7.37;;;;;;;15.95;75.32;95218.53;1721402;83;20990;-59
2022/07/20 05:22:12;;;;;;;7.40;5.47;;;;;;;16.03;75.11;95218.35;1693310;83;21231;-59
2022/07/20 05:24:41;;;;;;;10.40;5.67;;;;;;;16.11;74.89;95220.16;1721473;82;21102;-59
2022/07/20 05:27:10;;;;;;;9.78;5.72;;;;;;;16.18;74.48;95220.59;1721236;81;21084;-59
2022/07/20 05:29:38;;;;;;;15.08;5.97;;;;;;;16.24;74.53;95220.08;1721348;83;21088;-60
2022/07/20 05:32:08;;;;;;;11.38;6.37;;;;;;;16.35;74.37;95220.36;1721442;81;20938;-59
2022/07/20 05:34:36;;;;;;;9.80;5.05;;;;;;;16.48;74.15;95218.09;1721431;83;21247;-60
2022/07/20 05:37:05;;;;;;;16.45;5.55;;;;;;;16.57;73.64;95212.48;1721544;81;21530;-60
2022/07/20 05:39:33;;;;;;;9.08;5.60;;;;;;;16.65;73.17;95210.27;1749030;80;21151;-60
2022/07/20 05:42:02;;;;;;;23.67;12.80;;;;;;;16.75;72.93;95209.57;1775209;80;20991;-60
2022/07/20 05:44:30;;;;;;;12.58;6.30;;;;;;;16.88;72.86;95204.53;1769825;80;21011;-59
2022/07/20 05:46:59;;;;;;;16.77;6.42;;;;;;;17.02;72.56;95205.15;1777458;80;21081;-59
2022/07/20 05:49:27;;;;;;;16.45;6.28;;;;;;;17.15;72.15;95199.48;1777339;80;21143;-59
2022/07/20 05:51:55;;;;;;;10.28;5.65;;;;;;;17.28;71.91;95204.76;1740538;80;20994;-60
2022/07/20 05:54:23;;;;;;;14.28;5.70;;;;;;;17.38;71.36;95197.87;1727346;81;21069;-66
2022/07/20 05:56:51;;;;;;;11.55;6.30;;;;;;;17.48;70.99;95193.75;1747397;79;20982;-60
2022/07/20 05:59:20;;;;;;;15.00;5.30;;;;;;;17.60;70.93;95189.88;1716684;80;21270;-70
2022/07/20 06:01:47;;;;;;;8.03;5.42;;;;;;;17.76;70.83;95196.34;1743890;80;21065;-57
2022/07/20 06:04:15;;;;;;;12.88;5.37;;;;;;;17.90;70.55;95194.95;1765202;80;21009;-62
2022/07/20 06:06:44;;;;;;;10.70;5.65;;;;;;;18.03;70.03;95193.23;1746477;80;21057;-63
2022/07/20 06:09:13;;;;;;;12.45;5.92;;;;;;;18.14;69.70;95185.80;1752062;80;21057;-59
2022/07/20 06:11:43;;;;;;;8.75;5.37;;;;;;;18.27;69.29;95181.45;1748329;79;21104;-63
2022/07/20 06:14:10;;;;;;;11.25;4.78;;;;;;;18.39;68.56;95187.32;1722134;80;22103;-63
2022/07/20 06:16:38;;;;;;;9.10;5.72;;;;;;;18.47;68.12;95189.06;1756634;80;21034;-66
2022/07/20 06:19:08;;;;;;;12.47;5.05;;;;;;;18.56;67.59;95188.30;1743550;80;21052;-64
2022/07/20 06:21:36;;;;;;;15.43;5.45;;;;;;;18.61;67.17;95179.23;1704847;80;20978;-63
2022/07/20 06:24:04;;;;;;;15.15;6.40;;;;;;;18.71;67.20;95179.24;1734714;80;21153;-61
2022/07/20 06:26:33;;;;;;;15.25;6.95;;;;;;;18.84;67.40;95179.62;1758624;79;20994;-58
2022/07/20 06:29:02;;;;;;;7.95;5.28;;;;;;;18.99;67.43;95179.55;1715442;79;21072;-64
2022/07/20 06:31:31;;;;;;;12.88;5.45;;;;;;;19.12;67.05;95170.94;1761525;79;21484;-64
2022/07/20 06:33:59;;;;;;;12.65;5.45;;;;;;;19.28;66.52;95173.16;1756350;79;21525;-67
2022/07/20 06:36:27;;;;;;;12.28;4.90;;;;;;;19.41;65.92;95171.37;1748158;80;21173;-63
2022/07/20 06:38:56;;;;;;;7.33;4.87;;;;;;;19.54;65.18;95166.91;1737916;80;21051;-64
2022/07/20 06:41:24;;;;;;;9.23;5.53;;;;;;;19.64;64.92;95171.07;1752921;81;21123;-65
2022/07/20 06:43:52;;;;;;;8.45;5.20;;;;;;;19.77;64.71;95161.63;1747772;80;21142;-63
2022/07/20 06:46:20;;;;;;;9.78;5.20;;;;;;;19.90;65.05;95168.22;1747155;80;21001;-65
2022/07/20 06:48:48;;;;;;;8.75;5.12;;;;;;;20.04;64.58;95161.11;1718217;80;21243;-63
2022/07/20 06:51:16;;;;;;;11.53;4.85;;;;;;;20.15;64.04;95160.54;1746568;80;21168;-63
2022/07/20 06:53:44;;;;;;;9.33;5.03;;;;;;;20.28;63.12;95157.30;1748238;80;21498;-63
2022/07/20 06:56:13;;;;;;;16.25;5.47;;;;;;;20.37;62.28;95145.93;1758147;80;21049;-64
2022/07/20 06:58:40;;;;;;;19.00;6.83;;;;;;;20.48;62.24;95149.54;1712955;80;21105;-66
2022/07/20 07:01:08;;;;;;;8.45;5.25;;;;;;;20.63;62.04;95145.14;1720968;80;22755;-60
2022/07/20 07:03:37;;;;;;;7.53;4.90;;;;;;;20.77;61.49;95138.59;1753163;80;21073;-61
2022/07/20 07:06:05;;;;;;;7.05;4.62;;;;;;;20.88;60.92;95135.22;1764895;80;21077;-61
2022/07/20 07:08:34;;;;;;;8.13;4.47;;;;;;;20.99;60.70;95131.06;1710559;80;21033;-61
2022/07/20 07:11:03;;;;;;;7.87;4.30;;;;;;;21.11;60.28;95130.45;1730699;80;21882;-61
2022/07/20 07:13:32;;;;;;;13.30;4.80;;;;;;;21.22;59.81;95134.65;1734760;81;21070;-65
2022/07/20 07:16:01;;;;;;;8.53;5.05;;;;;;;21.35;60.37;95130.73;1730628;81;21043;-60
2022/07/20 07:18:29;;;;;;;15.75;5.03;;;;;;;21.49;60.66;95121.33;1729209;81;22150;-58
2022/07/20 07:20:58;;;;;;;10.15;5.03;;;;;;;21.65;59.79;95124.80;1704258;81;21096;-59
2022/07/20 07:23:26;;;;;;;13.50;4.25;;;;;;;21.81;59.19;95121.22;1687053;83;21480;-60
2022/07/20 07:25:53;;;;;;;6.28;4.25;;;;;;;21.95;59.21;95128.57;1731950;81;21486;-60
2022/07/20 07:28:22;;;;;;;7.95;4.33;;;;;;;22.09;59.23;95123.45;1748729;81;22190;-61
2022/07/20 07:30:50;;;;;;;10.78;4.78;;;;;;;22.29;58.07;95125.95;1720867;81;21042;-63
2022/07/20 07:33:25;;;;;;;8.03;5.10;;;;;;;22.47;58.05;95119.80;1714194;81;21064;-61
2022/07/20 07:35:52;;;;;;;6.67;5.05;;;;;;;22.64;56.99;95121.91;1724666;81;21171;-59
2022/07/20 07:38:19;;;;;;;13.30;5.12;;;;;;;22.79;57.40;95119.55;1720108;81;21231;-60
2022/07/20 07:40:48;;;;;;;13.70;4.80;;;;;;;22.96;56.99;95111.81;1752262;80;21071;-59
2022/07/20 07:43:16;;;;;;;7.47;4.47;;;;;;;23.12;56.86;95112.38;1728490;81;21216;-60
2022/07/20 07:45:44;;;;;;;7.40;4.33;;;;;;;23.32;56.06;95112.62;1731651;81;21527;-59
2022/07/20 07:48:13;;;;;;;13.85;5.58;;;;;;;23.49;55.04;95111.23;1710266;81;21055;-59
2022/07/20 07:50:41;;;;;;;16.05;10.13;;;;;;;23.68;54.55;95106.48;1749693;80;21523;-63
2022/07/20 07:53:09;;;;;;;14.83;5.17;;;;;;;23.86;54.18;95105.84;1711204;81;21092;-65
2022/07/20 07:55:39;;;;;;;7.45;4.10;;;;;;;23.97;53.08;95104.31;1719344;81;21090;-58
2022/07/20 07:58:08;;;;;;;6.22;4.17;;;;;;;24.10;52.05;95108.66;1714664;81;21102;-60
2022/07/20 08:00:35;;;;;;;6.37;3.77;;;;;;;24.30;51.16;95098.35;1735857;80;21460;-65
2022/07/20 08:03:05;;;;;;;10.82;4.40;;;;;;;24.56;49.81;95098.61;1731296;81;21792;-61
2022/07/20 08:05:34;;;;;;;8.38;4.35;;;;;;;24.77;49.35;95099.63;1716898;80;21541;-65
2022/07/20 08:08:11;;;;;;;10.10;4.58;;;;;;;24.91;48.46;95099.16;1713345;81;22201;-60
2022/07/20 08:10:41;;;;;;;14.43;5.83;;;;;;;24.99;47.35;95097.91;1744038;80;21582;-61
2022/07/20 08:13:08;;;;;;;9.18;4.28;;;;;;;25.08;46.57;95094.73;1767436;80;20981;-61
2022/07/20 08:15:36;;;;;;;8.80;4.28;;;;;;;25.19;46.62;95093.95;1764008;80;21076;-62
2022/07/20 08:18:05;;;;;;;10.85;4.12;;;;;;;25.27;45.97;95092.69;1776472;80;20955;-65
2022/07/20 08:20:33;;;;;;;14.45;4.97;;;;;;;25.26;46.02;95081.28;1744900;80;21058;-63
2022/07/20 08:23:01;;;;;;;11.73;5.25;;;;;;;25.29;45.73;95078.83;1739942;80;22553;-61
2022/07/20 08:25:29;;;;;;;7.65;4.00;;;;;;;25.34;45.50;95068.11;1731058;80;21011;-60
2022/07/20 08:28:10;;;;;;;5.12;3.95;;;;;;;25.43;45.34;95073.34;1727977;80;21735;-58
2022/07/20 08:30:45;;;;;;;9.18;4.25;;;;;;;25.48;45.17;95073.92;1713243;80;21540;-65
2022/07/20 08:33:13;;;;;;;9.90;4.78;;;;;;;25.51;44.65;95068.61;1746165;80;20959;-60
2022/07/20 08:35:41;;;;;;;8.33;4.70;;;;;;;25.52;44.17;95067.31;1722240;80;21095;-68
2022/07/20 08:38:10;;;;;;;7.22;4.78;;;;;;;25.51;44.24;95060.16;1726774;80;21026;-63
2022/07/20 08:40:38;;;;;;;7.78;3.58;;;;;;;25.49;43.32;95058.53;1727884;80;21238;-60
2022/07/20 08:43:06;;;;;;;12.15;4.22;;;;;;;25.45;43.06;95063.73;1760438;80;21195;-61
2022/07/20 08:45:35;;;;;;;10.13;4.55;;;;;;;25.46;43.53;95058.20;1747286;80;21806;-63
2022/07/20 08:48:04;;;;;;;5.70;4.35;;;;;;;25.54;43.41;95055.63;1750597;80;21197;-59
2022/07/20 08:50:33;;;;;;;6.17;4.45;;;;;;;25.68;42.55;95056.42;1739135;80;21053;-61
2022/07/20 08:53:07;;;;;;;7.33;4.03;;;;;;;25.81;42.92;95062.09;1713869;81;21439;-63
2022/07/20 08:55:38;;;;;;;8.85;3.75;;;;;;;26.03;43.11;95057.60;1745826;80;21081;-64
2022/07/20 08:58:05;;;;;;;5.08;3.58;;;;;;;26.22;41.46;95051.84;1692748;81;22400;-61
2022/07/20 09:00:33;;;;;;;6.10;3.62;;;;;;;26.29;41.90;95049.81;1747485;80;21025;-63
2022/07/20 09:03:06;;;;;;;5.35;3.60;;;;;;;26.32;41.49;95044.48;1714666;80;21014;-59
2022/07/20 09:05:36;;;;;;;5.65;3.80;;;;;;;26.35;41.96;95048.41;1737409;80;21131;-58
2022/07/20 09:08:05;;;;;;;6.85;3.92;;;;;;;26.40;40.58;95043.92;1741788;80;21061;-63
2022/07/20 09:10:36;;;;;;;9.33;4.58;;;;;;;26.43;41.07;95043.61;1731234;80;21153;-57
2022/07/20 09:13:17;;;;;;;6.58;3.47;;;;;;;26.47;41.34;95046.86;1721009;81;21176;-59
2022/07/20 09:15:53;;;;;;;9.08;4.35;;;;;;;26.48;40.33;95046.99;1731031;81;21153;-63
2022/07/20 09:18:32;;;;;;;10.25;4.33;;;;;;;26.45;40.42;95041.67;1730232;81;21418;-60
2022/07/20 09:21:04;;;;;;;9.23;3.92;;;;;;;26.43;40.13;95036.55;1727623;81;21066;-60
2022/07/20 09:23:44;;;;;;;5.67;4.30;;;;;;;26.51;40.88;95031.79;1729859;80;20997;-58
2022/07/20 09:26:15;;;;;;;7.75;4.20;;;;;;;26.68;42.79;95037.84;1735697;81;22097;-60
2022/07/20 09:28:53;;;;;;;7.85;3.98;;;;;;;26.79;41.17;95031.97;1720326;81;21567;-67
2022/07/20 09:31:27;;;;;;;9.90;4.22;;;;;;;26.96;40.35;95038.02;1724117;81;22226;-61
2022/07/20 09:34:13;;;;;;;6.25;4.30;;;;;;;27.13;40.80;95034.19;1718513;81;21142;-60
2022/07/20 09:36:44;;;;;;;3.90;3.22;;;;;;;27.28;40.73;95038.59;1755970;79;21069;-65
2022/07/20 09:39:18;;;;;;;5.45;3.52;;;;;;;27.50;42.00;95029.58;1746804;79;21026;-66
2022/07/20 09:41:56;;;;;;;7.22;3.70;;;;;;;27.65;40.17;95019.05;1740422;80;21175;-65
2022/07/20 09:44:26;;;;;;;6.80;3.62;;;;;;;27.81;41.45;95023.56;1707110;81;21139;-59
2022/07/20 09:46:54;;;;;;;5.55;3.33;;;;;;;28.00;41.49;95022.03;1751564;80;22106;-60
2022/07/20 09:49:34;;;;;;;4.87;3.20;;;;;;;28.24;39.62;95013.12;1737611;80;21124;-60
2022/07/20 09:52:03;;;;;;;8.90;3.22;;;;;;;28.35;36.51;95005.75;1727149;80;21089;-59
2022/07/20 09:54:31;;;;;;;6.45;3.45;;;;;;;28.30;37.01;95009.48;1716974;81;21613;-60
2022/07/20 09:56:59;;;;;;;7.33;3.87;;;;;;;28.22;37.07;95007.27;1736504;80;21849;-63
2022/07/20 09:59:27;;;;;;;13.48;4.25;;;;;;;28.09;36.97;95009.55;1703968;82;21443;-61
2022/07/20 10:01:56;;;;;;;5.28;3.92;;;;;;;27.87;37.75;95007.97;1750801;80;21081;-59
2022/07/20 10:04:26;;;;;;;5.85;3.50;;;;;;;27.71;37.61;95002.08;1732125;80;21053;-62
2022/07/20 10:06:54;;;;;;;5.25;3.52;;;;;;;27.67;37.88;95000.23;1739197;81;20998;-58
2022/07/20 10:09:23;;;;;;;9.80;4.50;;;;;;;27.68;37.67;95002.39;1763719;80;21355;-58
2022/07/20 10:11:52;;;;;;;8.03;3.62;;;;;;;27.74;37.99;94997.40;1754850;81;21096;-58
2022/07/20 10:14:22;;;;;;;3.55;2.90;;;;;;;27.90;38.33;94998.37;1751599;80;21528;-63
2022/07/20 10:16:52;;;;;;;4.92;3.02;;;;;;;28.17;39.09;94984.11;1711990;80;20989;-63
2022/07/20 10:19:42;;;;;;;4.28;3.42;;;;;;;28.49;37.59;94984.51;1756787;80;21031;-59
2022/07/20 10:22:11;;;;;;;4.37;3.25;;;;;;;28.66;37.27;94981.30;1723527;80;21109;-59
2022/07/20 10:24:42;;;;;;;6.92;3.85;;;;;;;28.72;37.38;94979.05;1746307;81;21048;-62
2022/07/20 10:27:24;;;;;;;5.50;3.60;;;;;;;28.70;36.96;94982.34;1748891;81;21013;-59
2022/07/20 10:29:54;;;;;;;5.92;3.50;;;;;;;28.63;36.50;94977.41;1752847;79;21532;-64
2022/07/20 10:32:24;;;;;;;4.10;3.05;;;;;;;28.49;36.57;94979.62;1751205;80;21219;-59
2022/07/20 10:35:03;;;;;;;6.00;3.37;;;;;;;28.61;37.13;94971.55;1717424;81;21097;-58
2022/07/20 10:37:39;;;;;;;5.83;3.40;;;;;;;28.83;39.29;94966.62;1763322;80;21071;-59
2022/07/20 10:40:20;;;;;;;8.10;3.50;;;;;;;28.95;38.86;94967.83;1772379;80;21422;-59
2022/07/20 10:43:15;;;;;;;8.75;3.80;;;;;;;29.08;37.11;94966.24;1749689;80;21027;-60
2022/07/20 10:45:43;;;;;;;7.40;3.70;;;;;;;29.01;36.64;94969.17;1740079;81;21033;-61
2022/07/20 10:48:15;;;;;;;7.05;4.08;;;;;;;28.91;36.76;94969.61;1755215;80;21075;-63
2022/07/20 10:50:51;;;;;;;3.77;3.08;;;;;;;28.91;37.39;94966.77;1752066;80;21510;-60
2022/07/20 10:53:28;;;;;;;6.17;3.65;;;;;;;28.82;35.58;94966.53;1736391;80;21144;-60
2022/07/20 10:55:58;;;;;;;6.72;3.30;;;;;;;28.74;35.82;94979.92;1766878;80;20990;-60
2022/07/20 10:58:33;;;;;;;12.20;3.70;;;;;;;28.67;35.80;94966.47;1749670;80;21008;-60
2022/07/20 11:01:06;;;;;;;8.08;3.65;;;;;;;28.62;35.91;94973.06;1757983;80;21066;-59
2022/07/20 11:03:46;;;;;;;6.08;3.85;;;;;;;28.81;35.80;94967.84;1732246;81;21147;-59
2022/07/20 11:06:23;;;;;;;4.05;3.40;;;;;;;28.73;35.55;94967.08;1746340;80;20982;-64
2022/07/20 11:08:57;;;;;;;4.53;3.25;;;;;;;28.65;36.88;94967.05;1701247;81;21657;-59
2022/07/20 11:11:27;;;;;;;9.20;4.05;;;;;;;28.53;36.44;94963.66;1751167;81;21045;-56
2022/07/20 11:13:54;;;;;;;4.97;3.75;;;;;;;28.42;37.11;94964.01;1725284;81;21213;-62
2022/07/20 11:16:24;;;;;;;6.15;3.22;;;;;;;28.33;37.72;94963.87;1731247;81;21083;-62
2022/07/20 11:18:52;;;;;;;5.00;3.12;;;;;;;28.42;37.05;94964.75;1748179;81;21136;-60
2022/07/20 11:21:35;;;;;;;5.75;3.15;;;;;;;28.56;36.82;94956.23;1732733;81;21065;-60
2022/07/20 11:24:06;;;;;;;8.63;3.30;;;;;;;28.90;35.97;94948.27;1726645;80;21017;-59
2022/07/20 11:26:33;;;;;;;11.45;4.80;;;;;;;29.42;36.60;94941.16;1761811;80;21243;-57
2022/07/20 11:29:01;;;;;;;8.53;4.12;;;;;;;30.00;36.47;94943.92;1716883;80;21081;-57
2022/07/20 11:31:29;;;;;;;5.33;3.33;;;;;;;30.19;35.36;94937.84;1754311;81;21052;-59
2022/07/20 11:33:59;;;;;;;4.70;3.12;;;;;;;30.24;33.76;94939.72;1783771;79;21345;-58
2022/07/20 11:36:35;;;;;;;4.85;3.30;;;;;;;30.08;33.92;94940.42;1729164;81;21028;-58
2022/07/20 11:39:05;;;;;;;3.83;3.02;;;;;;;29.83;33.65;94935.16;1742939;80;21209;-65
2022/07/20 11:41:36;;;;;;;4.42;3.50;;;;;;;29.53;34.48;94925.23;1721596;80;21652;-60
2022/07/20 11:44:06;;;;;;;5.87;2.87;;;;;;;29.29;34.46;94923.67;1739151;81;21492;-60